Portada
METAR-TAF:

METAR-TAF

Aeroports :

Lansing Municipal Airport

Lansing, Illinois, Estats Units d'Amèrica

latitud: 41-32-24N, longitud: 087-31-56W, altitud: 188 m

Observació

L'informe es va fer fa 19 minuts, a les 11:15 UTC
Vent calma
Temperatura 20°C
Humitat 83%
Pressió 1017 hPa
Visibilitat: 16.1 km
Cel clar

METAR: KIGQ 171115Z AUTO 00000KT 10SM CLR 20/17 A3003 RMK AO2 T01950166

Hora: 06:34 (11:34 UTC)


TAF: manca

Observacions i pronòstics meteorològics de més de 4000 aeroports (METAR i TAF).

Les estacions disponibles són els punts grocs i vermells al mapa.

Posi el ratolí al punt desitjat per veure el nom de l'estació.

Feu clic per veure les observacions i els pronòstics meteorològics.

Per canviar el mapa: feu clic els botons verds amb una creu de color negre per apropar; al botó verd amb un guió per allunyar la imatge; o en les fletxes verdes per a mapes adjacents.


METAR-TAF: